Time;durP1;ratioP1;P1;durP2;ratioP2;P2;SDS_P1;SDS_P2;PMS_P1;PMS_P2;Temp;Humidity;BMP_temperature;BMP_pressure;BME280_temperature;BME280_humidity;BME280_pressure;Samples;Min_cycle;Max_cycle;Signal;HPM_P1;HPM_P2
2022/09/14 00:01:20;;;;;;;1.77;1.13;;;18.20;99.90;;;;;;4976816;28;20205;-61
2022/09/14 00:04:01;;;;;;;2.28;1.40;;;18.20;99.90;;;;;;4977240;28;20197;-61
2022/09/14 00:06:29;;;;;;;1.90;1.50;;;18.20;99.90;;;;;;4978253;28;20195;-61
2022/09/14 00:08:59;;;;;;;4.47;1.30;;;18.10;99.90;;;;;;4974146;28;20408;-61
2022/09/14 00:11:29;;;;;;;11.60;1.38;;;18.20;99.90;;;;;;4973511;28;20202;-61
2022/09/14 00:13:57;;;;;;;7.63;1.95;;;18.10;99.90;;;;;;4974226;28;20559;-58
2022/09/14 00:16:30;;;;;;;10.85;1.50;;;18.10;99.90;;;;;;4970971;28;20176;-60
2022/09/14 00:18:59;;;;;;;6.65;1.80;;;18.10;99.90;;;;;;4974802;28;20037;-61
2022/09/14 00:21:27;;;;;;;3.08;1.40;;;18.10;99.90;;;;;;4965249;28;20917;-61
2022/09/14 00:23:54;;;;;;;4.13;1.60;;;18.10;99.90;;;;;;4975595;28;20050;-61
2022/09/14 00:26:22;;;;;;;2.80;1.55;;;18.10;99.90;;;;;;4969608;28;20896;-61
2022/09/14 00:28:56;;;;;;;2.70;1.45;;;18.20;99.90;;;;;;4980359;28;20208;-60
2022/09/14 00:31:24;;;;;;;8.35;1.80;;;18.20;99.90;;;;;;4980193;28;20640;-61
2022/09/14 00:33:52;;;;;;;12.50;1.70;;;18.20;99.90;;;;;;4975347;28;20221;-61
2022/09/14 00:36:29;;;;;;;2.85;1.35;;;18.20;99.90;;;;;;4978431;28;20053;-61
2022/09/14 00:38:56;;;;;;;6.05;1.48;;;18.20;99.90;;;;;;4979524;28;20182;-61
2022/09/14 00:41:27;;;;;;;6.80;1.60;;;18.30;99.90;;;;;;4975279;28;20040;-61
2022/09/14 00:43:58;;;;;;;6.40;1.63;;;18.30;99.90;;;;;;4972529;28;20823;-61
2022/09/14 00:46:28;;;;;;;1.95;1.63;;;18.30;99.90;;;;;;4976391;28;20563;-60
2022/09/14 00:48:58;;;;;;;5.60;1.40;;;18.30;99.90;;;;;;4968634;28;20210;-61
2022/09/14 00:51:28;;;;;;;6.10;2.22;;;18.30;99.90;;;;;;4971824;28;20395;-61
2022/09/14 00:53:55;;;;;;;8.05;1.90;;;18.40;99.90;;;;;;4971038;28;20107;-60
2022/09/14 00:56:22;;;;;;;1.98;1.63;;;18.40;99.90;;;;;;4964391;28;20197;-61
2022/09/14 00:58:51;;;;;;;5.85;1.88;;;18.40;99.90;;;;;;4972434;28;20038;-61
2022/09/14 01:01:19;;;;;;;7.53;1.60;;;18.40;99.90;;;;;;4980426;28;20041;-61
2022/09/14 01:03:46;;;;;;;3.47;1.70;;;18.40;99.90;;;;;;4973212;28;20041;-60
2022/09/14 01:06:34;;;;;;;2.40;1.77;;;18.50;99.90;;;;;;4975846;28;20365;-60
2022/09/14 01:09:46;;;;;;;4.72;1.85;;;18.50;99.90;;;;;;4977490;28;20416;-61
2022/09/14 01:12:34;;;;;;;4.55;1.90;;;18.50;99.90;;;;;;4977037;28;20036;-61
2022/09/14 01:15:42;;;;;;;3.35;2.38;;;18.50;99.90;;;;;;4968172;28;20041;-61
2022/09/14 01:18:23;;;;;;;3.33;2.08;;;18.60;99.90;;;;;;4927412;28;20141;-61
2022/09/14 01:20:59;;;;;;;5.40;2.28;;;18.60;99.90;;;;;;4931269;28;20112;-61
2022/09/14 01:23:35;;;;;;;10.65;2.13;;;18.50;99.90;;;;;;4952480;28;20056;-61
2022/09/14 01:26:43;;;;;;;10.73;2.33;;;18.60;99.90;;;;;;4974022;28;20270;-61
2022/09/14 01:29:31;;;;;;;13.85;3.65;;;18.60;99.90;;;;;;4958157;28;20811;-60
2022/09/14 01:32:11;;;;;;;5.60;2.05;;;18.60;99.90;;;;;;4968267;28;20034;-60
2022/09/14 01:34:54;;;;;;;13.75;2.58;;;18.60;99.90;;;;;;4975322;28;20045;-62
2022/09/14 01:37:28;;;;;;;10.45;3.08;;;18.60;99.90;;;;;;4974901;28;21002;-61
2022/09/14 01:40:00;;;;;;;6.30;1.63;;;18.60;99.90;;;;;;4975164;28;21000;-60
2022/09/14 01:42:28;;;;;;;7.93;2.10;;;18.70;99.90;;;;;;4978613;28;20063;-60
2022/09/14 01:44:58;;;;;;;6.80;2.05;;;18.70;99.90;;;;;;4974813;28;20560;-61
2022/09/14 01:47:35;;;;;;;8.60;2.17;;;18.80;99.90;;;;;;4976897;28;20592;-61
2022/09/14 01:50:10;;;;;;;4.47;1.80;;;18.90;99.90;;;;;;4973191;28;20555;-60
2022/09/14 01:52:51;;;;;;;8.90;2.40;;;19.00;99.90;;;;;;4971665;28;20045;-61
2022/09/14 01:55:27;;;;;;;8.60;2.17;;;19.10;99.90;;;;;;4975789;28;20042;-59
2022/09/14 01:58:03;;;;;;;4.13;2.00;;;19.10;99.90;;;;;;4971944;28;20210;-61
2022/09/14 02:00:30;;;;;;;14.50;2.20;;;19.20;99.90;;;;;;4973139;28;20044;-61
2022/09/14 02:03:04;;;;;;;10.90;2.10;;;19.20;99.90;;;;;;4972815;28;20131;-61
2022/09/14 02:05:57;;;;;;;11.02;2.30;;;19.20;99.90;;;;;;4976895;28;20506;-60
2022/09/14 02:08:28;;;;;;;13.98;2.78;;;19.30;99.90;;;;;;4977867;28;21106;-61
2022/09/14 02:10:56;;;;;;;7.10;1.83;;;19.20;99.90;;;;;;4976626;28;20449;-61
2022/09/14 02:13:25;;;;;;;6.28;1.80;;;19.30;99.90;;;;;;4983128;28;20186;-61
2022/09/14 02:15:52;;;;;;;3.78;1.80;;;19.30;99.90;;;;;;4974635;28;20063;-60
2022/09/14 02:18:20;;;;;;;8.32;2.25;;;19.30;99.90;;;;;;4975507;28;20986;-61
2022/09/14 02:20:54;;;;;;;13.38;2.88;;;19.40;99.90;;;;;;4971330;28;20395;-61
2022/09/14 02:23:22;;;;;;;3.90;2.05;;;19.40;99.90;;;;;;4984284;28;20037;-60
2022/09/14 02:25:49;;;;;;;7.90;1.80;;;19.50;99.90;;;;;;4984224;28;20500;-60
2022/09/14 02:28:18;;;;;;;5.88;1.63;;;19.50;99.90;;;;;;4972224;28;20209;-61
2022/09/14 02:31:17;;;;;;;7.53;1.80;;;19.50;99.90;;;;;;4976768;28;20037;-61
2022/09/14 02:34:25;;;;;;;13.30;2.15;;;19.50;99.90;;;;;;4940375;28;20894;-58
2022/09/14 02:36:55;;;;;;;8.57;2.63;;;19.50;99.90;;;;;;4970792;28;20061;-59
2022/09/14 02:39:40;;;;;;;5.80;1.80;;;19.40;99.90;;;;;;4977475;28;20853;-61
2022/09/14 02:42:36;;;;;;;6.15;1.98;;;19.40;99.90;;;;;;4974809;28;20051;-59
2022/09/14 02:45:31;;;;;;;4.38;1.95;;;19.40;99.90;;;;;;4959021;28;20214;-61
2022/09/14 02:48:20;;;;;;;9.20;2.83;;;19.40;99.90;;;;;;4972405;28;20143;-61
2022/09/14 02:51:02;;;;;;;10.00;2.30;;;19.30;99.90;;;;;;4970592;28;20052;-60
2022/09/14 02:53:48;;;;;;;3.45;2.30;;;19.30;99.90;;;;;;4971817;28;20145;-60
2022/09/14 02:56:17;;;;;;;3.42;2.20;;;19.30;99.90;;;;;;4980684;28;20697;-60
2022/09/14 02:58:45;;;;;;;8.52;2.38;;;19.30;99.90;;;;;;4975271;28;20554;-61
2022/09/14 03:01:15;;;;;;;9.93;2.88;;;19.20;99.90;;;;;;4972563;28;20046;-62
2022/09/14 03:03:42;;;;;;;5.57;2.17;;;19.30;99.90;;;;;;4971471;28;20045;-59
2022/09/14 03:06:08;;;;;;;9.90;2.40;;;19.30;99.90;;;;;;4982505;28;20263;-61
2022/09/14 03:08:36;;;;;;;11.45;3.13;;;19.30;99.90;;;;;;4981238;28;20041;-61
2022/09/14 03:11:04;;;;;;;9.32;2.15;;;19.30;99.90;;;;;;4977744;28;20139;-61
2022/09/14 03:13:33;;;;;;;5.93;2.15;;;19.30;99.90;;;;;;4977041;28;20539;-61
2022/09/14 03:16:08;;;;;;;7.03;2.03;;;19.40;99.90;;;;;;4974294;28;20119;-60
2022/09/14 03:18:36;;;;;;;6.45;2.10;;;19.40;99.90;;;;;;4979356;28;20065;-61
2022/09/14 03:21:12;;;;;;;2.85;1.75;;;19.40;99.90;;;;;;4973743;28;20175;-60
2022/09/14 03:23:41;;;;;;;7.47;3.45;;;19.30;99.90;;;;;;4976288;28;20033;-61
2022/09/14 03:26:16;;;;;;;7.32;2.58;;;19.20;99.90;;;;;;4973484;28;20180;-62
2022/09/14 03:28:44;;;;;;;8.35;2.10;;;19.20;99.90;;;;;;4966349;28;20147;-62
2022/09/14 03:31:11;;;;;;;3.53;2.00;;;19.10;99.90;;;;;;4978985;28;20597;-60
2022/09/14 03:33:39;;;;;;;14.48;3.00;;;19.10;99.90;;;;;;4980611;28;20057;-61
2022/09/14 03:36:17;;;;;;;9.50;3.28;;;19.20;99.90;;;;;;4969666;28;20356;-62
2022/09/14 03:38:46;;;;;;;11.95;2.78;;;19.30;99.90;;;;;;4968646;28;20049;-62
2022/09/14 03:41:14;;;;;;;14.85;3.45;;;19.30;99.90;;;;;;4976157;28;20118;-61
2022/09/14 03:43:42;;;;;;;10.20;2.63;;;19.40;99.90;;;;;;4972761;28;20156;-60
2022/09/14 03:46:12;;;;;;;12.02;2.53;;;19.40;99.90;;;;;;4979102;28;20115;-62
2022/09/14 03:48:40;;;;;;;12.95;2.25;;;19.40;99.90;;;;;;4978377;28;20040;-62
2022/09/14 03:51:09;;;;;;;8.88;2.78;;;19.50;99.90;;;;;;4974055;28;20048;-62
2022/09/14 03:53:37;;;;;;;7.55;1.65;;;19.60;99.90;;;;;;4970743;28;20090;-59
2022/09/14 03:56:09;;;;;;;6.45;2.13;;;19.50;99.90;;;;;;4975222;28;20589;-62
2022/09/14 03:58:36;;;;;;;7.43;2.20;;;19.50;99.90;;;;;;4976303;28;20151;-62
2022/09/14 04:01:09;;;;;;;12.43;3.17;;;19.50;99.90;;;;;;4969353;28;20099;-63
2022/09/14 04:03:37;;;;;;;6.80;2.50;;;19.40;99.90;;;;;;4971225;28;20048;-62
2022/09/14 04:06:04;;;;;;;7.63;2.05;;;19.20;99.90;;;;;;4977972;28;20045;-63
2022/09/14 04:08:33;;;;;;;10.40;2.40;;;19.00;99.90;;;;;;4970668;28;20046;-62
2022/09/14 04:11:06;;;;;;;9.63;3.15;;;18.90;99.90;;;;;;4967947;28;20178;-62
2022/09/14 04:13:34;;;;;;;12.10;3.08;;;18.80;99.90;;;;;;4971465;28;20152;-62
2022/09/14 04:16:01;;;;;;;9.80;2.42;;;18.70;99.90;;;;;;4975231;28;20037;-62
2022/09/14 04:18:28;;;;;;;4.90;2.25;;;18.60;99.90;;;;;;4976839;28;20621;-61
2022/09/14 04:20:57;;;;;;;7.20;2.00;;;18.60;99.90;;;;;;4979437;28;20049;-61
2022/09/14 04:23:24;;;;;;;12.20;2.47;;;18.50;99.90;;;;;;4964743;28;20590;-61
2022/09/14 04:25:52;;;;;;;6.70;2.78;;;18.50;99.90;;;;;;4958840;28;20202;-62
2022/09/14 04:28:20;;;;;;;8.35;2.78;;;18.40;99.90;;;;;;4975669;28;20211;-59
2022/09/14 04:30:58;;;;;;;7.50;2.38;;;18.40;99.90;;;;;;4977417;28;20052;-62
2022/09/14 04:33:29;;;;;;;9.65;2.83;;;18.40;99.90;;;;;;4980562;28;20581;-63
2022/09/14 04:36:01;;;;;;;14.82;2.88;;;18.30;99.90;;;;;;4973347;28;20045;-62
2022/09/14 04:38:30;;;;;;;10.00;2.30;;;18.40;99.90;;;;;;4989655;28;20752;-61
2022/09/14 04:40:58;;;;;;;6.35;2.50;;;18.40;99.90;;;;;;4977437;28;20059;-60
2022/09/14 04:43:25;;;;;;;8.32;2.80;;;18.40;99.90;;;;;;4974784;28;20140;-61
2022/09/14 04:45:52;;;;;;;8.40;3.20;;;18.40;99.90;;;;;;4966177;28;20536;-61
2022/09/14 04:48:19;;;;;;;7.13;3.10;;;18.30;99.90;;;;;;4982757;28;20935;-62
2022/09/14 04:50:46;;;;;;;11.63;3.13;;;18.30;99.90;;;;;;4973388;28;20554;-63
2022/09/14 04:53:13;;;;;;;11.85;3.50;;;18.30;99.90;;;;;;4975466;28;20108;-61
2022/09/14 04:55:40;;;;;;;6.20;2.65;;;18.20;99.90;;;;;;4978334;28;20290;-62
2022/09/14 04:58:08;;;;;;;12.90;2.95;;;18.20;99.90;;;;;;4973401;28;20045;-62
2022/09/14 05:00:35;;;;;;;4.53;2.65;;;18.20;99.90;;;;;;4971293;28;20041;-62
2022/09/14 05:03:04;;;;;;;8.75;2.75;;;18.20;99.90;;;;;;4982008;28;20040;-62
2022/09/14 05:05:35;;;;;;;7.20;2.90;;;18.20;99.90;;;;;;4974538;28;20345;-62
2022/09/14 05:08:02;;;;;;;9.40;2.58;;;18.10;99.90;;;;;;4971516;28;20377;-61
2022/09/14 05:10:29;;;;;;;8.13;2.05;;;18.10;99.90;;;;;;4968213;28;20052;-62
2022/09/14 05:12:56;;;;;;;7.00;2.78;;;18.20;99.90;;;;;;4970271;28;20049;-60
2022/09/14 05:15:23;;;;;;;8.48;2.50;;;18.20;99.90;;;;;;4974160;28;20059;-62
2022/09/14 05:17:49;;;;;;;6.25;2.80;;;18.20;99.90;;;;;;4976478;28;20045;-62
2022/09/14 05:20:17;;;;;;;4.43;2.60;;;18.20;99.90;;;;;;4971642;28;20128;-61
2022/09/14 05:22:47;;;;;;;10.38;2.97;;;18.20;99.90;;;;;;4981335;28;20573;-62
2022/09/14 05:25:14;;;;;;;7.93;2.20;;;18.20;99.90;;;;;;4984335;28;20044;-61
2022/09/14 05:27:41;;;;;;;7.25;2.13;;;18.10;99.90;;;;;;4975785;28;20209;-62
2022/09/14 05:30:08;;;;;;;14.68;2.88;;;18.10;99.90;;;;;;4979109;28;20037;-62
2022/09/14 05:32:36;;;;;;;6.45;2.20;;;18.10;99.90;;;;;;4976901;28;20045;-62
2022/09/14 05:35:03;;;;;;;9.93;2.90;;;18.10;99.90;;;;;;4967467;28;20884;-62
2022/09/14 05:37:30;;;;;;;7.40;2.45;;;18.00;99.90;;;;;;4975111;28;20055;-62
2022/09/14 05:39:57;;;;;;;9.85;2.95;;;18.00;99.90;;;;;;4967223;28;20037;-61
2022/09/14 05:42:24;;;;;;;13.52;2.60;;;18.00;99.90;;;;;;4973797;28;20939;-62
2022/09/14 05:44:51;;;;;;;11.48;2.70;;;18.00;99.90;;;;;;4965841;28;20052;-62
2022/09/14 05:47:18;;;;;;;8.38;2.40;;;18.00;99.90;;;;;;4964259;28;20448;-60
2022/09/14 05:49:46;;;;;;;12.65;2.45;;;18.00;99.90;;;;;;4969975;28;20068;-58
2022/09/14 05:52:12;;;;;;;8.55;2.90;;;18.00;99.90;;;;;;4975755;28;20217;-59
2022/09/14 05:54:40;;;;;;;5.95;2.20;;;18.00;99.90;;;;;;4975561;28;20676;-62
2022/09/14 05:57:06;;;;;;;6.57;2.33;;;18.00;99.90;;;;;;4975623;28;20045;-63
2022/09/14 05:59:33;;;;;;;10.13;2.58;;;18.00;99.90;;;;;;4975473;28;20045;-63
2022/09/14 06:02:01;;;;;;;7.43;2.28;;;18.10;99.90;;;;;;4963304;28;20068;-63
2022/09/14 06:04:28;;;;;;;6.93;2.50;;;18.10;99.90;;;;;;4963580;28;20329;-62
2022/09/14 06:06:55;;;;;;;15.70;2.80;;;18.10;99.90;;;;;;4965796;28;20033;-62
2022/09/14 06:09:42;;;;;;;14.20;2.33;;;18.10;99.90;;;;;;4966517;28;20113;-63
2022/09/14 06:12:09;;;;;;;9.23;2.65;;;18.20;99.90;;;;;;4981197;28;20046;-62
2022/09/14 06:14:36;;;;;;;8.30;2.33;;;18.20;99.90;;;;;;4969596;28;20770;-62
2022/09/14 06:17:04;;;;;;;9.18;2.22;;;18.30;99.90;;;;;;4972834;28;20108;-62
2022/09/14 06:19:31;;;;;;;9.68;2.80;;;18.30;99.90;;;;;;4972679;28;20592;-61
2022/09/14 06:21:59;;;;;;;5.75;1.92;;;18.40;99.90;;;;;;4974885;28;20042;-58
2022/09/14 06:24:26;;;;;;;10.98;2.33;;;18.40;99.90;;;;;;4974262;28;20398;-60
2022/09/14 06:26:53;;;;;;;4.35;2.58;;;18.50;99.90;;;;;;4968174;28;20111;-60
2022/09/14 06:29:20;;;;;;;6.82;2.15;;;18.50;99.90;;;;;;4968472;28;20593;-58
2022/09/14 06:31:47;;;;;;;3.28;2.10;;;18.50;99.90;;;;;;4970324;28;20050;-60
2022/09/14 06:34:14;;;;;;;6.65;2.50;;;18.60;99.90;;;;;;4967368;28;20765;-60
2022/09/14 06:36:42;;;;;;;11.07;2.50;;;18.60;99.90;;;;;;4967066;28;20053;-61
2022/09/14 06:39:09;;;;;;;11.15;2.42;;;18.70;99.90;;;;;;4978064;28;20040;-60
2022/09/14 06:41:37;;;;;;;5.78;2.38;;;18.70;99.90;;;;;;4977628;28;21022;-66
2022/09/14 06:44:04;;;;;;;8.73;2.53;;;18.70;99.90;;;;;;4974140;28;20053;-61
2022/09/14 06:46:33;;;;;;;10.63;3.35;;;18.80;99.90;;;;;;4973652;28;20033;-59
2022/09/14 06:49:08;;;;;;;8.10;2.63;;;18.80;99.90;;;;;;4973602;28;20393;-60
2022/09/14 06:51:43;;;;;;;11.60;2.60;;;18.80;99.90;;;;;;4980151;28;20562;-58
2022/09/14 06:54:12;;;;;;;4.18;2.08;;;18.90;99.90;;;;;;4976769;28;20832;-61
2022/09/14 06:56:40;;;;;;;11.88;2.60;;;18.90;99.90;;;;;;4976402;28;20140;-56
2022/09/14 06:59:12;;;;;;;8.30;2.88;;;18.90;99.90;;;;;;4979266;28;20197;-56
2022/09/14 07:01:39;;;;;;;3.83;2.08;;;19.00;99.90;;;;;;4981634;28;20144;-57
2022/09/14 07:04:07;;;;;;;5.10;2.10;;;19.00;99.90;;;;;;4978474;28;20059;-60
2022/09/14 07:06:46;;;;;;;6.72;2.42;;;19.00;99.90;;;;;;4972021;28;20751;-56
2022/09/14 07:09:15;;;;;;;4.68;2.50;;;19.10;99.90;;;;;;4976713;28;20905;-56
2022/09/14 07:11:42;;;;;;;7.50;2.17;;;19.10;99.90;;;;;;4977514;28;20959;-56
2022/09/14 07:14:10;;;;;;;6.65;2.50;;;19.20;99.90;;;;;;4981386;28;20040;-55
2022/09/14 07:16:38;;;;;;;5.32;2.35;;;19.20;99.90;;;;;;4966713;28;20570;-56
2022/09/14 07:19:09;;;;;;;9.02;2.83;;;19.20;99.90;;;;;;4984787;28;20210;-57
2022/09/14 07:21:36;;;;;;;7.82;2.47;;;19.30;99.90;;;;;;4976396;28;20285;-56
2022/09/14 07:24:03;;;;;;;6.90;2.97;;;19.40;99.90;;;;;;4974932;28;20041;-54
2022/09/14 07:26:34;;;;;;;10.73;2.17;;;19.40;99.90;;;;;;4981580;28;20041;-55
2022/09/14 07:29:03;;;;;;;6.22;2.08;;;19.50;99.90;;;;;;4978134;28;20206;-56
2022/09/14 07:31:33;;;;;;;5.05;2.47;;;19.60;99.90;;;;;;4982074;28;20048;-57
2022/09/14 07:34:02;;;;;;;5.63;2.45;;;19.70;99.90;;;;;;4972520;28;20415;-55
2022/09/14 07:36:31;;;;;;;7.93;2.63;;;19.80;99.90;;;;;;4994156;28;20050;-56
2022/09/14 07:39:02;;;;;;;5.35;2.20;;;19.90;99.90;;;;;;4976204;28;20143;-56
2022/09/14 07:41:31;;;;;;;11.13;2.65;;;20.10;99.90;;;;;;4976999;28;20328;-56
2022/09/14 07:44:00;;;;;;;6.15;2.70;;;20.10;99.90;;;;;;4967820;28;20233;-56
2022/09/14 07:46:31;;;;;;;6.85;2.50;;;20.20;99.90;;;;;;4980760;28;20049;-58
2022/09/14 07:49:00;;;;;;;7.10;2.22;;;20.30;99.90;;;;;;4977137;28;20051;-57
2022/09/14 07:51:29;;;;;;;9.55;2.28;;;20.40;99.90;;;;;;4981083;28;20160;-55
2022/09/14 07:53:59;;;;;;;8.23;2.25;;;20.50;99.90;;;;;;4970745;28;20199;-55
2022/09/14 07:56:27;;;;;;;5.47;2.30;;;20.60;99.90;;;;;;4974518;28;20160;-55
2022/09/14 07:58:58;;;;;;;8.02;2.30;;;20.70;99.90;;;;;;4977074;28;20089;-55
2022/09/14 08:01:46;;;;;;;9.40;2.58;;;20.80;99.90;;;;;;4978506;28;20091;-55
2022/09/14 08:04:13;;;;;;;7.22;2.65;;;20.90;99.90;;;;;;4978604;28;20055;-55
2022/09/14 08:06:39;;;;;;;5.90;1.73;;;21.00;99.90;;;;;;4983893;28;20113;-55
2022/09/14 08:09:07;;;;;;;16.15;3.83;;;21.10;99.90;;;;;;4977038;28;20065;-55
2022/09/14 08:11:35;;;;;;;12.52;2.55;;;21.20;99.90;;;;;;4976282;28;20156;-53
2022/09/14 08:14:04;;;;;;;17.50;2.70;;;21.30;99.90;;;;;;4978717;28;20198;-59
2022/09/14 08:16:37;;;;;;;7.20;2.13;;;21.40;99.90;;;;;;4973346;28;20046;-59
2022/09/14 08:19:09;;;;;;;26.55;4.65;;;21.50;99.90;;;;;;4973706;28;20634;-59
2022/09/14 08:21:37;;;;;;;11.05;2.22;;;21.50;99.90;;;;;;4971050;28;20058;-59
2022/09/14 08:24:12;;;;;;;8.70;2.08;;;21.60;99.90;;;;;;4979016;28;20041;-59
2022/09/14 08:26:41;;;;;;;10.27;2.42;;;21.70;99.90;;;;;;4970115;28;20867;-58
2022/09/14 08:29:08;;;;;;;13.05;2.50;;;21.70;99.90;;;;;;4978887;28;20142;-58
2022/09/14 08:31:37;;;;;;;14.88;2.25;;;21.80;99.90;;;;;;4974497;28;20893;-58
2022/09/14 08:34:06;;;;;;;7.60;2.00;;;21.90;99.90;;;;;;4980295;28;20050;-57
2022/09/14 08:36:36;;;;;;;5.22;1.58;;;22.00;99.90;;;;;;4978298;28;20576;-59
2022/09/14 08:39:05;;;;;;;4.68;1.63;;;22.10;99.90;;;;;;4967428;28;20049;-59
2022/09/14 08:41:40;;;;;;;6.70;2.00;;;22.20;99.90;;;;;;4974729;28;20056;-56
2022/09/14 08:44:28;;;;;;;6.53;2.40;;;22.30;99.90;;;;;;4971360;28;20130;-60
2022/09/14 08:47:03;;;;;;;13.63;2.33;;;22.50;99.90;;;;;;4976271;28;20046;-57
2022/09/14 08:49:50;;;;;;;11.68;1.98;;;22.60;99.90;;;;;;4972645;28;20050;-56
2022/09/14 08:52:33;;;;;;;4.87;2.20;;;22.80;99.90;;;;;;4973497;28;20236;-58
2022/09/14 08:55:14;;;;;;;4.70;1.98;;;23.00;99.90;;;;;;4980007;28;20398;-58
2022/09/14 08:57:54;;;;;;;6.93;2.15;;;23.10;99.90;;;;;;4975891;28;20041;-58
2022/09/14 09:00:27;;;;;;;3.75;1.55;;;23.30;99.90;;;;;;4979426;28;20122;-59
2022/09/14 09:03:01;;;;;;;5.07;1.70;;;23.30;99.90;;;;;;4974654;28;20041;-58
2022/09/14 09:05:44;;;;;;;8.77;3.15;;;23.30;99.90;;;;;;4973355;28;20056;-58
2022/09/14 09:08:38;;;;;;;4.88;1.70;;;23.40;99.90;;;;;;4972561;28;20048;-61
2022/09/14 09:11:13;;;;;;;6.82;2.10;;;23.40;99.90;;;;;;4976511;28;20052;-58
2022/09/14 09:13:42;;;;;;;10.45;1.88;;;23.40;99.90;;;;;;4977703;28;20049;-59
2022/09/14 09:16:11;;;;;;;7.40;1.85;;;23.50;99.90;;;;;;4974480;28;20049;-56
2022/09/14 09:19:00;;;;;;;6.97;1.98;;;23.60;99.90;;;;;;4969079;28;20045;-57
2022/09/14 09:21:47;;;;;;;11.13;2.42;;;23.70;99.90;;;;;;4977268;28;20652;-57
2022/09/14 09:24:25;;;;;;;12.55;3.38;;;23.70;99.90;;;;;;4969581;28;20068;-58
2022/09/14 09:26:52;;;;;;;4.32;1.83;;;23.80;99.90;;;;;;4971498;28;20041;-57
2022/09/14 09:29:19;;;;;;;5.90;1.88;;;23.90;99.90;;;;;;4965505;28;20866;-57
2022/09/14 09:32:09;;;;;;;12.25;3.03;;;24.00;99.90;;;;;;4964179;28;20123;-57
2022/09/14 09:34:56;;;;;;;8.00;2.28;;;24.00;99.90;;;;;;4965094;28;20909;-56
2022/09/14 09:37:46;;;;;;;8.00;2.05;;;23.90;99.90;;;;;;4964570;28;20577;-59
2022/09/14 09:40:26;;;;;;;6.85;1.92;;;23.90;99.90;;;;;;4972055;28;20147;-59
2022/09/14 09:43:14;;;;;;;11.07;2.05;;;24.00;99.90;;;;;;4969913;28;20329;-59
2022/09/14 09:46:03;;;;;;;18.52;2.92;;;24.10;99.90;;;;;;4969476;28;20044;-59
2022/09/14 09:48:40;;;;;;;6.35;2.00;;;24.20;99.90;;;;;;4963132;28;20037;-60
2022/09/14 09:51:25;;;;;;;9.25;2.28;;;24.30;99.90;;;;;;4964863;28;20790;-59
2022/09/14 09:54:14;;;;;;;10.85;2.65;;;24.40;99.90;;;;;;4961042;28;20289;-59
2022/09/14 09:56:57;;;;;;;6.82;2.22;;;24.60;99.90;;;;;;4960695;28;20046;-59
2022/09/14 09:59:27;;;;;;;6.78;2.08;;;24.80;99.90;;;;;;4972292;28;20060;-60
2022/09/14 10:01:56;;;;;;;7.70;2.25;;;25.00;99.90;;;;;;4973133;28;20255;-60
2022/09/14 10:04:27;;;;;;;11.10;2.35;;;25.30;99.90;;;;;;4975061;28;20143;-61
2022/09/14 10:06:56;;;;;;;5.20;2.22;;;25.50;99.90;;;;;;4978477;28;20045;-59
2022/09/14 10:09:26;;;;;;;3.22;1.65;;;25.60;99.90;;;;;;4968782;28;20119;-59
2022/09/14 10:11:58;;;;;;;7.07;2.40;;;25.70;99.90;;;;;;4968281;28;20091;-60
2022/09/14 10:14:36;;;;;;;6.25;2.00;;;25.80;99.90;;;;;;4972139;28;20042;-60
2022/09/14 10:17:15;;;;;;;6.35;2.08;;;25.90;99.90;;;;;;4970267;28;20538;-60
2022/09/14 10:19:51;;;;;;;7.35;1.95;;;25.80;99.90;;;;;;4974584;28;20821;-60
2022/09/14 10:22:31;;;;;;;10.38;2.05;;;25.70;99.90;;;;;;4972724;28;20140;-60
2022/09/14 10:25:21;;;;;;;10.45;3.03;;;25.70;99.90;;;;;;4976939;28;20040;-59
2022/09/14 10:27:54;;;;;;;7.38;2.15;;;25.70;99.90;;;;;;4971457;28;20053;-61
2022/09/14 10:30:25;;;;;;;8.95;1.80;;;25.60;99.90;;;;;;4966944;28;20213;-59
2022/09/14 10:32:55;;;;;;;10.98;2.42;;;25.60;99.90;;;;;;4970288;28;20049;-59
2022/09/14 10:35:27;;;;;;;4.40;2.28;;;25.60;99.90;;;;;;4967616;28;20049;-60
2022/09/14 10:38:30;;;;;;;8.77;2.10;;;25.50;99.90;;;;;;4977581;28;20126;-60
2022/09/14 10:41:21;;;;;;;4.95;1.70;;;25.50;99.90;;;;;;4979509;28;20237;-59
2022/09/14 10:44:04;;;;;;;6.78;2.30;;;25.40;99.90;;;;;;4970504;28;20054;-59
2022/09/14 10:46:49;;;;;;;4.38;2.00;;;25.30;99.90;;;;;;4978138;28;21071;-59
2022/09/14 10:49:36;;;;;;;4.90;2.85;;;25.30;99.90;;;;;;4980799;28;21054;-58
2022/09/14 10:52:03;;;;;;;5.05;2.20;;;25.20;99.90;;;;;;4978519;28;20123;-61
2022/09/14 10:54:38;;;;;;;6.60;2.30;;;25.10;99.90;;;;;;4976458;28;20204;-57
2022/09/14 10:57:46;;;;;;;4.32;1.88;;;25.00;99.90;;;;;;4977881;28;20045;-58
2022/09/14 11:00:17;;;;;;;8.00;2.20;;;24.80;99.90;;;;;;4930394;28;20349;-57
2022/09/14 11:03:26;;;;;;;11.27;2.40;;;24.60;99.90;;;;;;4976464;28;20904;-56
2022/09/14 11:06:05;;;;;;;5.53;2.00;;;24.40;99.90;;;;;;4946929;28;20042;-57
2022/09/14 11:08:43;;;;;;;9.23;2.38;;;24.30;99.90;;;;;;4984200;28;20048;-57
2022/09/14 11:11:29;;;;;;;5.63;1.70;;;24.20;99.90;;;;;;4967330;28;20869;-55
2022/09/14 11:14:08;;;;;;;9.70;2.35;;;24.00;99.90;;;;;;4970993;28;20065;-57
2022/09/14 11:16:52;;;;;;;7.60;2.33;;;24.00;99.90;;;;;;4971821;28;20060;-57
2022/09/14 11:19:37;;;;;;;8.00;2.10;;;23.80;99.90;;;;;;4976462;28;20314;-57
2022/09/14 11:22:28;;;;;;;7.70;2.20;;;23.70;99.90;;;;;;4970489;28;20044;-56
2022/09/14 11:25:02;;;;;;;8.18;2.30;;;23.50;99.90;;;;;;4975079;28;20041;-56
2022/09/14 11:28:07;;;;;;;12.57;2.72;;;23.40;99.90;;;;;;4977944;28;20035;-56
2022/09/14 11:30:37;;;;;;;7.05;1.90;;;23.30;99.90;;;;;;4976388;28;20156;-56
2022/09/14 11:33:36;;;;;;;8.63;1.98;;;23.10;99.90;;;;;;4976978;28;20284;-60
2022/09/14 11:36:15;;;;;;;5.53;1.85;;;23.00;99.90;;;;;;4972531;28;20202;-59
2022/09/14 11:39:14;;;;;;;3.95;2.05;;;22.90;99.90;;;;;;4970369;28;20038;-60
2022/09/14 11:41:48;;;;;;;12.35;2.63;;;22.90;99.90;;;;;;4973061;28;20041;-57
2022/09/14 11:44:23;;;;;;;10.27;2.08;;;22.80;99.90;;;;;;4951938;28;20037;-59
2022/09/14 11:47:11;;;;;;;8.00;3.67;;;22.80;99.90;;;;;;4968921;28;20195;-58
2022/09/14 11:50:06;;;;;;;9.15;2.53;;;22.90;99.90;;;;;;4974881;28;20605;-58
2022/09/14 11:52:33;;;;;;;7.47;2.33;;;23.00;99.90;;;;;;4984851;28;20890;-59
2022/09/14 11:55:07;;;;;;;7.35;2.35;;;23.20;99.90;;;;;;4978911;28;20318;-60
2022/09/14 11:57:36;;;;;;;4.10;2.00;;;23.30;99.90;;;;;;4972343;28;20183;-59
2022/09/14 12:00:09;;;;;;;7.47;2.78;;;23.30;99.90;;;;;;4976559;28;20049;-63
2022/09/14 12:02:35;;;;;;;7.63;2.38;;;23.40;99.90;;;;;;4974821;28;20551;-62
2022/09/14 12:05:06;;;;;;;9.38;2.72;;;23.40;99.90;;;;;;4960865;28;20037;-62
2022/09/14 12:07:41;;;;;;;4.68;1.77;;;23.40;99.90;;;;;;4979895;28;20868;-63
2022/09/14 12:10:16;;;;;;;9.52;2.75;;;23.50;99.90;;;;;;4970975;28;20360;-63
2022/09/14 12:12:44;;;;;;;7.68;2.75;;;23.40;99.90;;;;;;4973612;28;20352;-61
2022/09/14 12:15:23;;;;;;;8.57;2.50;;;23.30;99.90;;;;;;4974810;28;20558;-62
2022/09/14 12:17:51;;;;;;;5.53;2.22;;;23.30;99.90;;;;;;4963025;28;20178;-61
2022/09/14 12:20:40;;;;;;;2.90;2.03;;;23.20;99.90;;;;;;4979023;28;20061;-62
2022/09/14 12:23:21;;;;;;;4.15;2.40;;;23.10;99.90;;;;;;4979302;28;20705;-62
2022/09/14 12:26:04;;;;;;;8.40;3.42;;;23.00;99.90;;;;;;4976648;28;20800;-62
2022/09/14 12:28:33;;;;;;;5.43;2.35;;;22.90;99.90;;;;;;4963079;28;20037;-62
2022/09/14 12:31:03;;;;;;;7.28;2.58;;;22.80;99.90;;;;;;4970772;28;20122;-62
2022/09/14 12:33:34;;;;;;;13.93;3.72;;;22.70;99.90;;;;;;4976778;28;20574;-62
2022/09/14 12:36:11;;;;;;;5.22;2.33;;;22.70;99.90;;;;;;4963640;28;20794;-62
2022/09/14 12:39:01;;;;;;;5.47;2.38;;;22.60;99.90;;;;;;4971507;28;20596;-62
2022/09/14 12:41:34;;;;;;;14.98;2.90;;;22.60;99.90;;;;;;4968302;28;20152;-62
2022/09/14 12:44:03;;;;;;;9.50;3.30;;;22.50;99.90;;;;;;4968668;28;20029;-61
2022/09/14 12:46:32;;;;;;;7.55;2.65;;;22.40;99.90;;;;;;4970986;28;20046;-61
2022/09/14 12:49:02;;;;;;;7.93;3.22;;;22.30;99.90;;;;;;4969577;28;20115;-62
2022/09/14 12:51:31;;;;;;;4.22;2.50;;;22.20;99.90;;;;;;4970797;28;20056;-60
2022/09/14 12:54:07;;;;;;;5.93;3.05;;;22.10;99.90;;;;;;4973001;28;20108;-61
2022/09/14 12:56:45;;;;;;;7.65;2.67;;;22.00;99.90;;;;;;4974670;28;20041;-62
2022/09/14 12:59:20;;;;;;;7.80;3.30;;;21.90;99.90;;;;;;4968486;28;20437;-63
2022/09/14 13:01:50;;;;;;;5.10;3.22;;;21.70;99.90;;;;;;4974991;28;20559;-62
2022/09/14 13:04:28;;;;;;;4.47;2.75;;;21.50;99.90;;;;;;4970469;28;20037;-62
2022/09/14 13:06:58;;;;;;;9.40;3.13;;;21.40;99.90;;;;;;4966986;28;20306;-61
2022/09/14 13:09:27;;;;;;;10.93;3.60;;;21.30;99.90;;;;;;4964284;28;20033;-61
2022/09/14 13:12:01;;;;;;;13.05;3.83;;;21.10;99.90;;;;;;4967130;28;20397;-60
2022/09/14 13:14:51;;;;;;;12.82;3.75;;;21.00;99.90;;;;;;4970218;28;20261;-61
2022/09/14 13:17:18;;;;;;;7.63;3.17;;;20.90;99.90;;;;;;4979639;28;20072;-62
2022/09/14 13:20:02;;;;;;;8.40;3.65;;;20.90;99.90;;;;;;4967843;28;20059;-62